createdAt,value
2023-04-19T00:00:57.619Z,1015.46
2023-04-19T00:01:57.665Z,1015.46
2023-04-19T00:02:57.784Z,1015.44
2023-04-19T00:03:57.784Z,1015.45
2023-04-19T00:04:57.748Z,1015.46
2023-04-19T00:05:57.591Z,1015.44
2023-04-19T00:06:57.562Z,1015.49
2023-04-19T00:07:57.547Z,1015.45
2023-04-19T00:08:57.556Z,1015.44
2023-04-19T00:09:57.529Z,1015.48
2023-04-19T00:10:57.547Z,1015.45
2023-04-19T00:11:57.539Z,1015.45
2023-04-19T00:12:57.483Z,1015.45
2023-04-19T00:13:57.561Z,1015.45
2023-04-19T00:14:57.469Z,1015.49
2023-04-19T00:15:57.521Z,1015.46
2023-04-19T00:16:57.533Z,1015.48
2023-04-19T00:17:57.471Z,1015.48
2023-04-19T00:18:57.445Z,1015.46
2023-04-19T00:19:57.463Z,1015.44
2023-04-19T00:20:57.420Z,1015.46
2023-04-19T00:21:57.451Z,1015.43
2023-04-19T00:22:57.388Z,1015.42
2023-04-19T00:23:57.370Z,1015.39
2023-04-19T00:24:57.402Z,1015.40
2023-04-19T00:25:57.370Z,1015.38
2023-04-19T00:26:57.357Z,1015.40
2023-04-19T00:27:57.318Z,1015.45
2023-04-19T00:28:57.322Z,1015.39
2023-04-19T00:29:57.346Z,1015.36
2023-04-19T00:30:57.381Z,1015.38
2023-04-19T00:31:57.382Z,1015.33
2023-04-19T00:32:57.336Z,1015.40
2023-04-19T00:33:57.302Z,1015.38
2023-04-19T00:34:57.304Z,1015.35
2023-04-19T00:35:57.254Z,1015.35
2023-04-19T00:36:57.238Z,1015.31
2023-04-19T00:37:57.243Z,1015.33
2023-04-19T00:38:57.258Z,1015.33
2023-04-19T00:39:57.200Z,1015.34
2023-04-19T00:40:57.266Z,1015.37
2023-04-19T00:41:57.189Z,1015.33
2023-04-19T00:42:57.166Z,1015.36
2023-04-19T00:43:57.167Z,1015.32
2023-04-19T00:44:57.145Z,1015.34
2023-04-19T00:45:57.169Z,1015.31
2023-04-19T00:46:57.160Z,1015.30
2023-04-19T00:47:57.309Z,1015.29
2023-04-19T00:48:57.109Z,1015.30
2023-04-19T00:49:57.095Z,1015.32
2023-04-19T00:50:57.109Z,1015.27
2023-04-19T00:51:57.093Z,1015.27
2023-04-19T00:52:57.098Z,1015.27
2023-04-19T00:53:57.075Z,1015.27
2023-04-19T00:54:57.178Z,1015.27
2023-04-19T00:55:57.039Z,1015.26
2023-04-19T00:56:57.032Z,1015.26
2023-04-19T00:57:57.025Z,1015.23
2023-04-19T00:58:57.015Z,1015.22
2023-04-19T00:59:56.992Z,1015.23
2023-04-19T01:00:56.991Z,1015.24
2023-04-19T01:01:57.057Z,1015.22
2023-04-19T01:02:57.039Z,1015.22
2023-04-19T01:03:57.034Z,1015.20
2023-04-19T01:04:56.955Z,1015.24
2023-04-19T01:05:56.990Z,1015.23
2023-04-19T01:06:56.934Z,1015.22
2023-04-19T01:07:56.916Z,1015.21
2023-04-19T01:08:56.916Z,1015.24
2023-04-19T01:09:56.906Z,1015.21
2023-04-19T01:10:56.926Z,1015.21
2023-04-19T01:11:56.896Z,1015.23
2023-04-19T01:12:56.870Z,1015.27
2023-04-19T01:13:56.922Z,1015.26
2023-04-19T01:14:56.851Z,1015.30
2023-04-19T01:15:56.879Z,1015.30
2023-04-19T01:16:56.848Z,1015.29
2023-04-19T01:17:56.886Z,1015.29
2023-04-19T01:18:56.825Z,1015.29
2023-04-19T01:19:56.782Z,1015.29
2023-04-19T01:20:56.793Z,1015.29
2023-04-19T01:21:56.756Z,1015.29
2023-04-19T01:22:56.777Z,1015.28
2023-04-19T01:23:56.741Z,1015.29
2023-04-19T01:24:56.805Z,1015.28
2023-04-19T01:25:56.750Z,1015.29
2023-04-19T01:26:56.734Z,1015.29
2023-04-19T01:27:56.737Z,1015.34
2023-04-19T01:28:56.689Z,1015.28
2023-04-19T01:29:56.706Z,1015.35
2023-04-19T01:30:56.763Z,1015.34
2023-04-19T01:31:56.651Z,1015.38
2023-04-19T01:32:56.679Z,1015.32
2023-04-19T01:33:56.635Z,1015.33
2023-04-19T01:34:56.630Z,1015.31
2023-04-19T01:35:56.610Z,1015.29
2023-04-19T01:36:56.645Z,1015.29
2023-04-19T01:37:56.667Z,1015.30
2023-04-19T01:38:56.628Z,1015.28
2023-04-19T01:39:56.562Z,1015.30
2023-04-19T01:40:56.575Z,1015.30
2023-04-19T01:41:56.533Z,1015.28
2023-04-19T01:42:56.550Z,1015.29
2023-04-19T01:43:56.547Z,1015.28
2023-04-19T01:44:56.523Z,1015.27
2023-04-19T01:45:56.507Z,1015.27
2023-04-19T01:46:56.646Z,1015.27
2023-04-19T01:47:56.545Z,1015.27
2023-04-19T01:48:56.493Z,1015.23
2023-04-19T01:49:56.585Z,1015.23
2023-04-19T01:50:56.474Z,1015.21
2023-04-19T01:51:56.442Z,1015.20
2023-04-19T01:52:56.472Z,1015.22
2023-04-19T01:53:56.422Z,1015.22
2023-04-19T01:54:56.417Z,1015.21
2023-04-19T01:55:56.402Z,1015.24
2023-04-19T01:56:56.405Z,1015.23
2023-04-19T01:57:56.385Z,1015.24
2023-04-19T01:58:56.410Z,1015.23
2023-04-19T01:59:56.357Z,1015.25
2023-04-19T02:00:56.366Z,1015.24
2023-04-19T02:01:56.414Z,1015.27
2023-04-19T02:02:56.469Z,1015.25
2023-04-19T02:03:56.401Z,1015.24
2023-04-19T02:04:56.359Z,1015.25
2023-04-19T02:05:56.292Z,1015.23
2023-04-19T02:06:56.288Z,1015.22
2023-04-19T02:07:56.284Z,1015.23
2023-04-19T02:08:56.279Z,1015.22
2023-04-19T02:09:56.206Z,1015.23
2023-04-19T02:10:56.243Z,1015.22
2023-04-19T02:11:56.234Z,1015.23
2023-04-19T02:12:56.223Z,1015.24
2023-04-19T02:13:56.222Z,1015.21
2023-04-19T02:14:56.211Z,1015.20
2023-04-19T02:15:56.223Z,1015.22
2023-04-19T02:16:56.254Z,1015.19
2023-04-19T02:17:56.201Z,1015.21
2023-04-19T02:18:56.224Z,1015.18
2023-04-19T02:19:56.167Z,1015.20
2023-04-19T02:20:56.181Z,1015.22
2023-04-19T02:21:56.147Z,1015.24
2023-04-19T02:22:56.123Z,1015.20
2023-04-19T02:23:56.120Z,1015.20
2023-04-19T02:24:56.137Z,1015.22
2023-04-19T02:25:56.105Z,1015.20
2023-04-19T02:26:56.076Z,1015.22
2023-04-19T02:27:56.106Z,1015.22
2023-04-19T02:28:56.054Z,1015.25
2023-04-19T02:29:56.090Z,1015.23
2023-04-19T02:30:56.039Z,1015.29
2023-04-19T02:31:56.106Z,1015.24
2023-04-19T02:32:56.055Z,1015.22
2023-04-19T02:33:55.999Z,1015.24
2023-04-19T02:34:56.031Z,1015.24
2023-04-19T02:35:56.004Z,1015.23
2023-04-19T02:36:55.972Z,1015.24
2023-04-19T02:37:55.981Z,1015.23
2023-04-19T02:38:55.977Z,1015.21
2023-04-19T02:39:56.012Z,1015.22
2023-04-19T02:40:55.943Z,1015.23
2023-04-19T02:41:55.944Z,1015.22
2023-04-19T02:42:55.901Z,1015.24
2023-04-19T02:43:55.912Z,1015.23
2023-04-19T02:44:55.873Z,1015.22
2023-04-19T02:45:55.972Z,1015.19
2023-04-19T02:46:55.879Z,1015.21
2023-04-19T02:47:55.879Z,1015.20
2023-04-19T02:48:55.844Z,1015.24
2023-04-19T02:49:55.818Z,1015.25
2023-04-19T02:50:55.821Z,1015.28
2023-04-19T02:51:55.792Z,1015.28
2023-04-19T02:52:55.801Z,1015.28
2023-04-19T02:53:55.777Z,1015.31
2023-04-19T02:54:55.764Z,1015.29
2023-04-19T02:55:55.779Z,1015.31
2023-04-19T02:56:55.762Z,1015.33
2023-04-19T02:57:55.772Z,1015.32
2023-04-19T02:58:55.709Z,1015.31
2023-04-19T02:59:55.727Z,1015.29
2023-04-19T03:00:55.698Z,1015.31
2023-04-19T03:01:55.791Z,1015.27
2023-04-19T03:02:55.829Z,1015.26
2023-04-19T03:03:55.856Z,1015.28
2023-04-19T03:04:55.676Z,1015.24
2023-04-19T03:05:55.649Z,1015.25
2023-04-19T03:06:55.617Z,1015.24
2023-04-19T03:07:55.661Z,1015.22
2023-04-19T03:08:55.615Z,1015.23
2023-04-19T03:09:55.629Z,1015.25
2023-04-19T03:10:55.631Z,1015.25
2023-04-19T03:11:55.600Z,1015.26
2023-04-19T03:12:55.573Z,1015.29
2023-04-19T03:13:55.565Z,1015.24
2023-04-19T03:14:55.555Z,1015.21
2023-04-19T03:15:55.589Z,1015.19
2023-04-19T03:16:55.518Z,1015.18
2023-04-19T03:17:55.571Z,1015.24
2023-04-19T03:18:55.516Z,1015.16
2023-04-19T03:19:55.476Z,1015.15
2023-04-19T03:20:55.522Z,1015.14
2023-04-19T03:21:55.460Z,1015.12
2023-04-19T03:22:55.465Z,1015.13
2023-04-19T03:23:55.450Z,1015.14
2023-04-19T03:24:55.432Z,1015.12
2023-04-19T03:25:55.419Z,1015.14
2023-04-19T03:26:55.422Z,1015.12
2023-04-19T03:27:55.397Z,1015.16
2023-04-19T03:28:55.403Z,1015.14
2023-04-19T03:29:55.713Z,1015.12
2023-04-19T03:30:55.396Z,1015.09
2023-04-19T03:31:55.351Z,1015.10
2023-04-19T03:32:55.403Z,1015.08
2023-04-19T03:33:55.336Z,1015.08
2023-04-19T03:34:55.336Z,1015.06
2023-04-19T03:35:55.363Z,1015.09
2023-04-19T03:36:55.350Z,1015.14
2023-04-19T03:37:55.307Z,1015.05
2023-04-19T03:38:55.292Z,1015.03
2023-04-19T03:39:55.277Z,1015.03
2023-04-19T03:40:55.290Z,1015.05
2023-04-19T03:41:55.250Z,1015.03
2023-04-19T03:42:55.242Z,1015.03
2023-04-19T03:43:55.234Z,1015.01
2023-04-19T03:44:55.256Z,1014.98
2023-04-19T03:45:55.270Z,1015.03
2023-04-19T03:46:55.206Z,1015.02
2023-04-19T03:47:55.212Z,1015.01
2023-04-19T03:48:55.172Z,1015.00
2023-04-19T03:49:55.185Z,1015.01
2023-04-19T03:50:55.185Z,1014.98
2023-04-19T03:51:55.146Z,1014.94
2023-04-19T03:52:55.111Z,1015.10
2023-04-19T03:53:55.180Z,1014.98
2023-04-19T03:54:55.112Z,1014.98
2023-04-19T03:55:55.146Z,1014.99
2023-04-19T03:56:55.077Z,1014.95
2023-04-19T03:57:55.130Z,1014.95
2023-04-19T03:58:55.003Z,1015.02
2023-04-19T03:59:55.025Z,1014.97
2023-04-19T04:00:55.014Z,1014.92
2023-04-19T04:01:55.805Z,1014.96
2023-04-19T04:02:55.092Z,1014.95
2023-04-19T04:03:55.096Z,1014.91
2023-04-19T04:04:55.119Z,1014.91
2023-04-19T04:05:54.951Z,1014.94
2023-04-19T04:06:54.931Z,1014.96
2023-04-19T04:07:54.912Z,1014.91
2023-04-19T04:08:54.923Z,1014.92
2023-04-19T04:09:54.906Z,1014.94
2023-04-19T04:10:54.890Z,1015.02
2023-04-19T04:11:54.872Z,1015.03
2023-04-19T04:12:54.855Z,1014.96
2023-04-19T04:13:54.889Z,1014.98
2023-04-19T04:14:54.830Z,1015.02
2023-04-19T04:15:54.843Z,1015.02
2023-04-19T04:16:54.858Z,1015.08
2023-04-19T04:17:54.836Z,1015.03
2023-04-19T04:18:54.788Z,1015.00
2023-04-19T04:19:54.796Z,1015.08
2023-04-19T04:20:54.779Z,1015.00
2023-04-19T04:21:54.780Z,1015.11
2023-04-19T04:22:54.744Z,1015.00
2023-04-19T04:23:54.762Z,1015.06
2023-04-19T04:24:54.717Z,1015.04
2023-04-19T04:25:54.735Z,1015.02
2023-04-19T04:26:54.867Z,1015.06
2023-04-19T04:27:54.715Z,1015.04
2023-04-19T04:28:54.691Z,1015.11
2023-04-19T04:29:54.706Z,1015.13
2023-04-19T04:30:54.676Z,1015.09
2023-04-19T04:31:54.735Z,1015.04
2023-04-19T04:32:54.728Z,1015.06
2023-04-19T04:33:54.704Z,1015.05
2023-04-19T04:34:54.628Z,1015.08
2023-04-19T04:35:54.629Z,1015.02
2023-04-19T04:36:54.642Z,1015.03
2023-04-19T04:37:54.627Z,1015.04
2023-04-19T04:38:54.598Z,1015.10
2023-04-19T04:39:54.653Z,1015.02
2023-04-19T04:40:54.597Z,1015.07
2023-04-19T04:41:54.587Z,1015.01
2023-04-19T04:42:54.573Z,1014.99
2023-04-19T04:44:10.698Z,1015.01
2023-04-19T04:44:54.558Z,1015.02
2023-04-19T04:45:54.574Z,1015.02
2023-04-19T04:46:54.539Z,1015.10
2023-04-19T04:47:54.594Z,1015.06
2023-04-19T04:48:54.509Z,1015.11
2023-04-19T04:49:54.502Z,1015.05
2023-04-19T04:50:55.737Z,1015.01
2023-04-19T04:51:54.518Z,1015.07
2023-04-19T04:52:54.454Z,1015.14
2023-04-19T04:53:54.454Z,1015.08
2023-04-19T04:54:54.478Z,1015.08
2023-04-19T04:55:54.435Z,1015.11
2023-04-19T04:56:54.450Z,1015.08
2023-04-19T04:57:54.434Z,1015.09
2023-04-19T04:58:54.421Z,1015.16
2023-04-19T04:59:54.404Z,1015.06
2023-04-19T05:00:54.408Z,1015.06
2023-04-19T05:01:54.415Z,1015.14
2023-04-19T05:02:54.694Z,1015.10
2023-04-19T05:03:54.393Z,1015.14
2023-04-19T05:04:54.326Z,1015.10
2023-04-19T05:05:54.412Z,1015.17
2023-04-19T05:06:54.350Z,1015.22
2023-04-19T05:07:54.399Z,1015.20
2023-04-19T05:08:54.311Z,1015.16
2023-04-19T05:09:54.317Z,1015.25
2023-04-19T05:10:54.311Z,1015.10
2023-04-19T05:11:54.283Z,1015.20
2023-04-19T05:12:54.268Z,1015.18
2023-04-19T05:13:54.300Z,1015.14
2023-04-19T05:14:54.228Z,1015.23
2023-04-19T05:15:54.308Z,1015.18
2023-04-19T05:16:54.228Z,1015.22
2023-04-19T05:17:54.286Z,1015.19
2023-04-19T05:18:54.318Z,1015.19
2023-04-19T05:19:54.184Z,1015.22
2023-04-19T05:20:54.178Z,1015.17
2023-04-19T05:21:54.221Z,1015.16
2023-04-19T05:22:54.144Z,1015.18
2023-04-19T05:23:54.213Z,1015.18
2023-04-19T05:24:54.154Z,1015.22
2023-04-19T05:25:54.180Z,1015.12
2023-04-19T05:26:54.137Z,1015.14
2023-04-19T05:27:54.118Z,1015.17
2023-04-19T05:28:54.190Z,1015.23
2023-04-19T05:29:54.148Z,1015.17
2023-04-19T05:30:54.091Z,1015.24
2023-04-19T05:31:54.209Z,1015.19
2023-04-19T05:32:54.102Z,1015.26
2023-04-19T05:33:54.131Z,1015.34
2023-04-19T05:34:54.068Z,1015.30
2023-04-19T05:35:54.031Z,1015.32
2023-04-19T05:36:54.026Z,1015.35
2023-04-19T05:37:54.011Z,1015.29
2023-04-19T05:38:54.039Z,1015.27
2023-04-19T05:39:53.997Z,1015.33
2023-04-19T05:40:54.036Z,1015.37
2023-04-19T05:41:53.958Z,1015.35
2023-04-19T05:42:53.939Z,1015.31
2023-04-19T05:43:54.031Z,1015.33
2023-04-19T05:44:53.935Z,1015.33
2023-04-19T05:45:53.991Z,1015.32
2023-04-19T05:46:53.925Z,1015.28
2023-04-19T05:47:53.967Z,1015.30
2023-04-19T05:48:53.890Z,1015.30
2023-04-19T05:49:53.912Z,1015.37
2023-04-19T05:50:53.860Z,1015.36
2023-04-19T05:51:53.932Z,1015.33
2023-04-19T05:52:53.849Z,1015.33
2023-04-19T05:53:55.186Z,1015.43
2023-04-19T05:54:53.884Z,1015.37
2023-04-19T05:55:53.819Z,1015.36
2023-04-19T05:56:53.814Z,1015.40
2023-04-19T05:57:53.825Z,1015.46
2023-04-19T05:58:53.799Z,1015.41
2023-04-19T05:59:53.783Z,1015.41
2023-04-19T06:00:53.820Z,1015.40
2023-04-19T06:01:53.813Z,1015.44
2023-04-19T06:02:53.877Z,1015.40
2023-04-19T06:03:53.932Z,1015.40
2023-04-19T06:04:53.813Z,1015.42
2023-04-19T06:05:53.745Z,1015.43
2023-04-19T06:06:53.807Z,1015.44
2023-04-19T06:07:55.535Z,1015.46
2023-04-19T06:08:55.000Z,1015.48
2023-04-19T06:09:53.692Z,1015.50
2023-04-19T06:10:57.099Z,1015.38
2023-04-19T06:11:53.698Z,1015.44
2023-04-19T06:12:53.650Z,1015.43
2023-04-19T06:13:53.806Z,1015.44
2023-04-19T06:14:53.613Z,1015.37
2023-04-19T06:15:53.638Z,1015.48
2023-04-19T06:16:53.643Z,1015.41
2023-04-19T06:17:53.661Z,1015.43
2023-04-19T06:18:53.584Z,1015.46
2023-04-19T06:19:53.563Z,1015.49
2023-04-19T06:20:53.552Z,1015.46
2023-04-19T06:21:53.555Z,1015.54
2023-04-19T06:22:53.588Z,1015.46
2023-04-19T06:23:53.525Z,1015.48
2023-04-19T06:24:53.644Z,1015.46
2023-04-19T06:25:53.518Z,1015.45
2023-04-19T06:26:53.619Z,1015.52
2023-04-19T06:27:53.496Z,1015.49
2023-04-19T06:28:53.507Z,1015.53
2023-04-19T06:29:53.485Z,1015.49
2023-04-19T06:30:53.465Z,1015.51
2023-04-19T06:31:53.509Z,1015.45
2023-04-19T06:32:53.457Z,1015.50
2023-04-19T06:33:53.557Z,1015.53
2023-04-19T06:34:53.423Z,1015.53
2023-04-19T06:35:53.420Z,1015.56
2023-04-19T06:36:53.424Z,1015.56
2023-04-19T06:37:53.403Z,1015.56
2023-04-19T06:38:54.011Z,1015.59
2023-04-19T06:39:53.372Z,1015.52
2023-04-19T06:40:53.356Z,1015.51
2023-04-19T06:41:53.363Z,1015.56
2023-04-19T06:42:53.360Z,1015.55
2023-04-19T06:43:53.526Z,1015.64
2023-04-19T06:44:53.328Z,1015.55
2023-04-19T06:45:53.409Z,1015.75
2023-04-19T06:46:53.302Z,1015.61
2023-04-19T06:47:53.381Z,1015.64
2023-04-19T06:48:53.455Z,1015.57
2023-04-19T06:49:53.252Z,1015.58
2023-04-19T06:50:53.272Z,1015.67
2023-04-19T06:51:53.389Z,1015.66
2023-04-19T06:52:53.289Z,1015.61
2023-04-19T06:53:53.226Z,1015.60
2023-04-19T06:54:53.295Z,1015.66
2023-04-19T06:55:53.232Z,1015.65
2023-04-19T06:56:53.214Z,1015.60
2023-04-19T06:57:53.182Z,1015.65
2023-04-19T06:58:53.209Z,1015.63
2023-04-19T06:59:53.159Z,1015.65
2023-04-19T07:00:53.163Z,1015.65
2023-04-19T07:01:53.215Z,1015.66
2023-04-19T07:02:53.377Z,1015.66
2023-04-19T07:03:55.048Z,1015.67
2023-04-19T07:04:53.313Z,1015.64
2023-04-19T07:05:53.256Z,1015.59
2023-04-19T07:06:53.109Z,1015.62
2023-04-19T07:07:53.089Z,1015.61
2023-04-19T07:08:53.163Z,1015.67
2023-04-19T07:09:53.686Z,1015.66
2023-04-19T07:10:53.120Z,1015.69
2023-04-19T07:11:53.989Z,1015.70
2023-04-19T07:12:53.088Z,1015.64
2023-04-19T07:13:53.125Z,1015.61
2023-04-19T07:14:54.013Z,1015.65
2023-04-19T07:15:53.562Z,1015.60
2023-04-19T07:16:53.505Z,1015.62
2023-04-19T07:17:53.578Z,1015.64
2023-04-19T07:18:53.020Z,1015.71
2023-04-19T07:19:53.524Z,1015.66
2023-04-19T07:20:53.106Z,1015.63
2023-04-19T07:21:52.977Z,1015.66
2023-04-19T07:22:53.026Z,1015.63
2023-04-19T07:23:52.963Z,1015.58
2023-04-19T07:24:53.201Z,1015.60
2023-04-19T07:25:52.961Z,1015.69
2023-04-19T07:26:52.918Z,1015.61
2023-04-19T07:27:52.962Z,1015.61
2023-04-19T07:28:53.414Z,1015.60
2023-04-19T07:29:52.929Z,1015.60
2023-04-19T07:30:52.977Z,1015.64
2023-04-19T07:31:53.949Z,1015.55
2023-04-19T07:32:53.552Z,1015.58
2023-04-19T07:33:53.528Z,1015.57
2023-04-19T07:34:53.527Z,1015.58
2023-04-19T07:35:52.837Z,1015.63
2023-04-19T07:36:52.795Z,1015.57
2023-04-19T07:37:52.800Z,1015.62
2023-04-19T07:38:53.035Z,1015.76
2023-04-19T07:39:53.056Z,1015.64
2023-04-19T07:43:17.977Z,1015.58
2023-04-19T07:44:19.835Z,1015.46
2023-04-19T07:45:18.913Z,1015.63
2023-04-19T07:46:18.947Z,1015.70
2023-04-19T07:47:18.849Z,1015.61
2023-04-19T07:48:18.877Z,1015.53
2023-04-19T07:49:18.857Z,1015.58
2023-04-19T07:50:18.839Z,1015.53
2023-04-19T07:51:18.792Z,1015.62
2023-04-19T07:52:19.742Z,1015.58
2023-04-19T07:53:18.734Z,1015.57
2023-04-19T07:54:19.679Z,1015.55
2023-04-19T07:55:18.723Z,1015.66
2023-04-19T07:56:18.769Z,1015.56
2023-04-19T07:57:18.770Z,1015.58
2023-04-19T07:58:19.563Z,1015.53
2023-04-19T07:59:18.743Z,1015.54
2023-04-19T08:00:18.951Z,1015.51
2023-04-19T08:01:18.636Z,1015.59
2023-04-19T08:02:19.050Z,1015.48
2023-04-19T08:03:18.927Z,1015.49
2023-04-19T08:04:20.603Z,1015.52
2023-04-19T08:05:18.768Z,1015.45
2023-04-19T08:06:18.709Z,1015.48
2023-04-19T08:19:33.285Z,1015.42
2023-04-19T08:20:34.260Z,1015.43
2023-04-19T08:21:40.504Z,1015.44
2023-04-19T08:22:34.153Z,1015.44
2023-04-19T08:23:44.879Z,1015.44
2023-04-19T08:24:34.972Z,1015.60
2023-04-19T08:25:33.986Z,1015.44
2023-04-19T08:26:34.334Z,1015.38
2023-04-19T08:31:07.204Z,1015.43
2023-04-19T08:32:08.330Z,1015.37
2023-04-19T08:33:08.279Z,1015.44
2023-04-19T08:34:08.120Z,1015.32
2023-04-19T08:35:08.223Z,1015.35
2023-04-19T08:36:08.133Z,1015.43
2023-04-19T08:38:44.442Z,1015.48
2023-04-19T08:54:08.587Z,1015.42
2023-04-19T08:55:09.420Z,1015.45
2023-04-19T08:56:17.958Z,1015.38
2023-04-19T08:57:10.513Z,1015.38
2023-04-19T08:58:18.929Z,1015.29
2023-04-19T08:59:18.179Z,1015.36
2023-04-19T09:00:09.384Z,1015.32
2023-04-19T09:01:14.899Z,1015.34
2023-04-19T09:02:09.404Z,1015.30
2023-04-19T09:03:09.728Z,1015.29
2023-04-19T09:04:34.650Z,1015.35
2023-04-19T09:05:09.344Z,1015.31
2023-04-19T09:06:09.625Z,1015.31
2023-04-19T09:07:09.303Z,1015.32
2023-04-19T09:08:09.404Z,1015.23
2023-04-19T09:09:14.265Z,1015.32
2023-04-19T09:10:09.630Z,1015.36
2023-04-19T09:11:09.228Z,1015.33
2023-04-19T09:12:09.239Z,1015.28
2023-04-19T09:13:09.290Z,1015.20
2023-04-19T09:14:09.197Z,1015.27
2023-04-19T09:15:09.355Z,1015.25
2023-04-19T09:16:09.242Z,1015.30
2023-04-19T09:17:11.706Z,1015.25
2023-04-19T09:18:09.275Z,1015.23
2023-04-19T09:19:22.291Z,1015.22
2023-04-19T09:20:09.176Z,1015.24
2023-04-19T09:21:09.731Z,1015.08
2023-04-19T09:22:09.127Z,1015.18
2023-04-19T09:23:09.240Z,1015.18
2023-04-19T09:26:15.011Z,1015.18
2023-04-19T09:26:51.832Z,1015.09
2023-04-19T09:27:51.833Z,1015.09
2023-04-19T09:28:51.790Z,1015.06
2023-04-19T09:29:51.823Z,1015.09
2023-04-19T09:31:52.418Z,1015.07
2023-04-19T09:32:51.805Z,1015.06
2023-04-19T09:33:51.784Z,1015.02
2023-04-19T09:34:51.693Z,1015.10
2023-04-19T09:35:51.721Z,1014.95
2023-04-19T09:37:00.646Z,1014.93
2023-04-19T09:38:04.888Z,1014.91
2023-04-19T09:40:51.873Z,1014.93
2023-04-19T09:41:52.733Z,1014.90
2023-04-19T09:44:07.783Z,1014.85
2023-04-19T09:45:27.506Z,1014.87
2023-04-19T09:45:52.671Z,1014.82
2023-04-19T09:46:59.609Z,1014.81
2023-04-19T09:47:52.693Z,1014.80
2023-04-19T09:48:52.611Z,1014.78
2023-04-19T09:49:52.727Z,1014.81
2023-04-19T09:50:58.602Z,1014.78
2023-04-19T09:51:52.581Z,1014.77
2023-04-19T09:52:52.643Z,1014.82
2023-04-19T09:53:52.549Z,1014.76
2023-04-19T09:54:52.568Z,1014.78
2023-04-19T09:56:00.244Z,1014.71
2023-04-19T09:56:54.076Z,1014.66
2023-04-19T09:57:52.574Z,1014.74
2023-04-19T10:07:31.979Z,1014.69
2023-04-19T10:08:20.832Z,1014.66
2023-04-19T10:09:20.699Z,1014.74
2023-04-19T10:10:22.573Z,1014.69
2023-04-19T10:11:20.725Z,1014.94
2023-04-19T10:12:45.668Z,1014.73
2023-04-19T10:13:22.598Z,1014.70
2023-04-19T10:14:20.745Z,1014.78
2023-04-19T10:15:20.611Z,1014.72
2023-04-19T10:16:20.908Z,1014.74
2023-04-19T10:17:20.676Z,1014.66
2023-04-19T10:18:20.815Z,1014.62
2023-04-19T10:21:51.721Z,1014.55
2023-04-19T10:22:52.593Z,1014.52
2023-04-19T10:23:52.686Z,1014.61
2023-04-19T10:24:52.649Z,1014.51
2023-04-19T10:28:15.106Z,1014.46
2023-04-19T10:29:16.046Z,1014.47
2023-04-19T10:30:15.724Z,1014.54
2023-04-19T10:31:15.762Z,1014.42
2023-04-19T10:32:15.874Z,1014.62
2023-04-19T10:33:15.712Z,1014.44
2023-04-19T10:34:15.729Z,1014.47
2023-04-19T10:35:15.701Z,1014.33
2023-04-19T10:36:15.825Z,1014.37
2023-04-19T10:37:15.742Z,1014.41
2023-04-19T10:38:15.679Z,1014.36
2023-04-19T10:39:15.908Z,1014.34
2023-04-19T10:40:15.638Z,1014.33
2023-04-19T10:41:17.446Z,1014.42
2023-04-19T10:42:15.634Z,1014.32
2023-04-19T10:47:17.181Z,1014.29
2023-04-19T10:55:02.566Z,1014.28
2023-04-19T10:56:03.539Z,1014.30
2023-04-19T10:57:03.404Z,1014.30
2023-04-19T10:58:03.440Z,1014.17
2023-04-19T10:59:03.403Z,1014.16
2023-04-19T11:00:03.367Z,1014.19
2023-04-19T11:02:33.154Z,1014.10
2023-04-19T11:09:59.533Z,1013.97
2023-04-19T11:11:00.952Z,1013.91
2023-04-19T11:13:55.718Z,1014.05
2023-04-19T11:14:56.702Z,1014.14
2023-04-19T11:15:56.713Z,1013.94
2023-04-19T11:16:56.675Z,1013.94
2023-04-19T11:18:11.488Z,1013.97
2023-04-19T11:18:56.598Z,1013.93
2023-04-19T11:19:56.631Z,1013.91
2023-04-19T11:20:56.628Z,1013.92
2023-04-19T11:21:56.582Z,1013.93
2023-04-19T11:22:56.543Z,1014.07
2023-04-19T11:23:56.620Z,1013.94
2023-04-19T11:24:56.538Z,1013.89
2023-04-19T11:56:09.877Z,1013.45
2023-04-19T11:57:10.603Z,1013.33
2023-04-19T12:23:30.828Z,1012.95
2023-04-19T12:24:15.614Z,1012.99
2023-04-19T12:25:15.451Z,1012.91
2023-04-19T12:26:15.441Z,1012.92
2023-04-19T12:27:15.370Z,1012.96
2023-04-19T12:28:15.450Z,1012.98
2023-04-19T12:29:15.561Z,1012.88
2023-04-19T12:30:15.522Z,1013.12
2023-04-19T12:50:48.524Z,1012.82
2023-04-19T12:51:49.769Z,1012.83
2023-04-19T12:52:49.323Z,1012.80
2023-04-19T12:53:49.233Z,1012.87
2023-04-19T12:54:49.279Z,1012.80
2023-04-19T12:55:49.220Z,1012.73
2023-04-19T12:59:27.124Z,1012.70
2023-04-19T13:00:28.025Z,1012.66
2023-04-19T13:01:28.103Z,1012.68
2023-04-19T13:02:28.022Z,1012.84
2023-04-19T13:03:28.197Z,1012.69
2023-04-19T13:04:28.109Z,1012.70
2023-04-19T13:05:27.921Z,1012.65
2023-04-19T13:06:27.951Z,1012.55
2023-04-19T13:07:27.882Z,1012.64
2023-04-19T13:08:43.383Z,1012.64
2023-04-19T13:09:27.858Z,1012.56
2023-04-19T13:10:27.901Z,1012.56
2023-04-19T13:11:27.837Z,1012.55
2023-04-19T13:12:27.821Z,1012.53
2023-04-19T13:13:27.827Z,1012.54
2023-04-19T13:14:27.780Z,1012.52
2023-04-19T13:15:27.819Z,1012.55
2023-04-19T13:16:27.975Z,1012.48
2023-04-19T13:17:27.787Z,1012.59
2023-04-19T13:18:27.740Z,1012.56
2023-04-19T13:19:27.807Z,1012.51
2023-04-19T13:20:27.731Z,1012.55
2023-04-19T13:21:27.701Z,1012.41
2023-04-19T13:22:27.699Z,1012.49
2023-04-19T13:23:27.704Z,1012.47
2023-04-19T13:24:27.689Z,1012.46
2023-04-19T13:25:28.557Z,1012.45
2023-04-19T13:26:27.769Z,1012.41
2023-04-19T13:27:27.638Z,1012.56
2023-04-19T13:28:27.846Z,1012.43
2023-04-19T13:29:27.692Z,1012.43
2023-04-19T13:30:27.689Z,1012.39
2023-04-19T13:31:27.653Z,1012.42
2023-04-19T13:32:28.375Z,1012.38
2023-04-19T13:57:27.958Z,1012.03
2023-04-19T13:58:19.963Z,1011.99
2023-04-19T13:59:19.784Z,1012.05
2023-04-19T14:00:19.752Z,1011.96
2023-04-19T14:01:19.740Z,1011.95
2023-04-19T14:02:19.781Z,1011.94
2023-04-19T14:03:19.866Z,1011.98
2023-04-19T14:04:20.282Z,1011.90
2023-04-19T14:05:19.631Z,1011.87
2023-04-19T14:08:29.813Z,1011.86
2023-04-19T14:09:30.662Z,1011.94
2023-04-19T14:10:30.585Z,1011.92
2023-04-19T14:11:30.615Z,1011.91
2023-04-19T14:12:30.701Z,1011.98
2023-04-19T14:13:30.505Z,1011.86
2023-04-19T14:14:32.332Z,1011.76
2023-04-19T14:19:08.818Z,1011.76
2023-04-19T14:20:09.800Z,1011.74
2023-04-19T14:21:09.775Z,1011.70
2023-04-19T14:22:09.772Z,1011.68
2023-04-19T14:23:09.958Z,1011.78
2023-04-19T14:24:09.738Z,1011.66
2023-04-19T14:25:09.752Z,1011.68
2023-04-19T14:26:09.698Z,1011.64
2023-04-19T14:27:11.435Z,1011.64
2023-04-19T14:28:09.704Z,1011.63
2023-04-19T14:29:09.740Z,1011.68
2023-04-19T14:30:09.702Z,1011.65
2023-04-19T14:31:09.656Z,1011.49
2023-04-19T14:32:24.285Z,1011.49
2023-04-19T14:33:09.737Z,1011.58
2023-04-19T14:34:09.614Z,1011.48
2023-04-19T14:35:09.624Z,1011.50
2023-04-19T14:36:09.663Z,1011.47
2023-04-19T14:37:09.699Z,1011.57
2023-04-19T14:38:09.564Z,1011.56
2023-04-19T14:39:09.696Z,1011.59
2023-04-19T14:40:09.701Z,1011.56
2023-04-19T14:41:09.684Z,1011.56
2023-04-19T14:42:09.584Z,1011.49
2023-04-19T14:43:09.533Z,1011.42
2023-04-19T14:44:09.540Z,1011.43
2023-04-19T14:45:09.527Z,1011.54
2023-04-19T14:46:09.558Z,1011.52
2023-04-19T14:47:09.502Z,1011.52
2023-04-19T14:48:09.547Z,1011.49
2023-04-19T14:49:09.467Z,1011.57
2023-04-19T14:50:09.453Z,1011.47
2023-04-19T14:51:09.452Z,1011.55
2023-04-19T14:52:09.441Z,1011.43
2023-04-19T14:53:09.432Z,1011.53
2023-04-19T14:54:09.403Z,1011.50
2023-04-19T14:55:09.409Z,1011.42
2023-04-19T14:56:09.452Z,1011.41
2023-04-19T14:57:09.380Z,1011.52
2023-04-19T14:58:09.359Z,1011.45
2023-04-19T14:59:09.389Z,1011.56
2023-04-19T15:00:09.315Z,1011.55
2023-04-19T15:01:09.374Z,1011.31
2023-04-19T15:02:09.416Z,1011.36
2023-04-19T15:03:09.562Z,1011.41
2023-04-19T15:04:09.618Z,1011.32
2023-04-19T15:05:09.630Z,1011.44
2023-04-19T15:06:09.316Z,1011.32
2023-04-19T15:07:09.320Z,1011.26